Time;durP1;ratioP1;P1;durP2;ratioP2;P2;SDS_P1;SDS_P2;PMS_P1;PMS_P2;Temp;Humidity;BMP_temperature;BMP_pressure;BME280_temperature;BME280_humidity;BME280_pressure;Samples;Min_cycle;Max_cycle;Signal;HPM_P1;HPM_P2
2021/09/05 00:01:49;;;;;;;1999.90;999.90;;;18.00;99.90;;;;;;5017093;28;20189;-81
2021/09/05 00:04:15;;;;;;;1999.90;999.90;;;18.00;99.90;;;;;;5016816;28;20162;-81
2021/09/05 00:06:41;;;;;;;1999.90;999.90;;;18.00;99.90;;;;;;5016500;28;20429;-81
2021/09/05 00:09:06;;;;;;;1999.90;999.90;;;18.00;99.90;;;;;;5016882;28;20170;-81
2021/09/05 00:11:33;;;;;;;1999.90;999.90;;;18.00;99.90;;;;;;5016423;28;20633;-81
2021/09/05 00:13:59;;;;;;;1999.90;999.90;;;18.00;99.90;;;;;;5016285;28;20178;-81
2021/09/05 00:16:24;;;;;;;1999.90;999.90;;;18.00;99.90;;;;;;5016400;28;20424;-81
2021/09/05 00:18:50;;;;;;;1999.90;999.90;;;18.00;99.90;;;;;;5016436;28;20459;-81
2021/09/05 00:21:16;;;;;;;1999.90;999.90;;;17.90;99.90;;;;;;5016736;28;20525;-81
2021/09/05 00:23:41;;;;;;;1999.90;999.90;;;17.90;99.90;;;;;;5016252;28;20190;-81
2021/09/05 00:26:08;;;;;;;1999.90;999.90;;;17.90;99.90;;;;;;5016266;28;20182;-81
2021/09/05 00:28:34;;;;;;;1999.90;999.90;;;17.90;99.90;;;;;;5016451;28;20189;-81
2021/09/05 00:31:01;;;;;;;1999.90;999.90;;;17.80;99.90;;;;;;5015852;28;20508;-81
2021/09/05 00:33:27;;;;;;;1999.90;999.90;;;17.80;99.90;;;;;;5014040;28;20766;-81
2021/09/05 00:35:52;;;;;;;1999.90;999.90;;;17.80;99.90;;;;;;5016192;28;20476;-81
2021/09/05 00:38:18;;;;;;;1999.90;999.90;;;17.70;99.90;;;;;;5015905;28;20968;-81
2021/09/05 00:40:44;;;;;;;1999.90;999.90;;;17.70;99.90;;;;;;5016460;28;20592;-81
2021/09/05 00:43:10;;;;;;;1999.90;999.90;;;17.70;99.90;;;;;;5015876;28;20428;-81
2021/09/05 00:45:35;;;;;;;1999.90;999.90;;;17.70;99.90;;;;;;5015821;28;20597;-81
2021/09/05 00:48:01;;;;;;;1999.90;999.90;;;17.70;99.90;;;;;;5016232;28;20200;-81
2021/09/05 00:50:28;;;;;;;1999.90;999.90;;;17.70;99.90;;;;;;5015042;28;20227;-81
2021/09/05 00:52:55;;;;;;;1999.90;999.90;;;17.60;99.90;;;;;;5015552;28;20257;-81
2021/09/05 00:55:21;;;;;;;1999.90;999.90;;;17.60;99.90;;;;;;5014448;28;20416;-81
2021/09/05 00:57:48;;;;;;;1999.90;999.90;;;17.60;99.90;;;;;;5016279;28;20428;-80
2021/09/05 01:00:14;;;;;;;1999.90;999.90;;;17.60;99.90;;;;;;5014718;28;20823;-81
2021/09/05 01:02:40;;;;;;;1999.90;999.90;;;17.50;99.90;;;;;;5014630;28;20405;-81
2021/09/05 01:05:06;;;;;;;1999.90;999.90;;;17.50;99.90;;;;;;5015737;28;20404;-81
2021/09/05 01:07:33;;;;;;;1999.90;999.90;;;17.50;99.90;;;;;;5014278;28;20938;-81
2021/09/05 01:09:59;;;;;;;1999.90;999.90;;;17.50;99.90;;;;;;5016294;28;20772;-81
2021/09/05 01:12:26;;;;;;;1999.90;999.90;;;17.50;99.90;;;;;;5016749;28;20459;-81
2021/09/05 01:14:52;;;;;;;1999.90;999.90;;;17.40;99.90;;;;;;5015358;28;20413;-81
2021/09/05 01:17:18;;;;;;;1999.90;999.90;;;17.40;99.90;;;;;;5016365;28;20432;-81
2021/09/05 01:19:44;;;;;;;1999.90;999.90;;;17.40;99.90;;;;;;5014991;28;20457;-81
2021/09/05 01:22:10;;;;;;;1999.90;999.90;;;17.40;99.90;;;;;;5015694;28;20260;-81
2021/09/05 01:24:35;;;;;;;1999.90;999.90;;;17.40;99.90;;;;;;5015506;28;20409;-81
2021/09/05 01:27:01;;;;;;;1999.90;999.90;;;17.30;99.90;;;;;;5015130;28;20201;-81
2021/09/05 01:29:27;;;;;;;1999.90;999.90;;;17.30;99.90;;;;;;5015062;28;20548;-82
2021/09/05 01:31:55;;;;;;;1999.90;999.90;;;17.30;99.90;;;;;;5016549;28;20440;-81
2021/09/05 01:34:23;;;;;;;1999.90;999.90;;;17.30;99.90;;;;;;5016208;28;20188;-82
2021/09/05 01:36:51;;;;;;;1999.90;999.90;;;17.30;99.90;;;;;;5015294;28;20785;-81
2021/09/05 01:39:18;;;;;;;1999.90;999.90;;;17.30;99.90;;;;;;5014951;28;20525;-81
2021/09/05 01:41:45;;;;;;;1999.90;999.90;;;17.20;99.90;;;;;;5016189;28;20892;-81
2021/09/05 01:44:15;;;;;;;1999.90;999.90;;;17.30;99.90;;;;;;5016934;28;20415;-81
2021/09/05 01:46:41;;;;;;;1999.90;999.90;;;17.20;99.90;;;;;;5001369;28;20429;-81
2021/09/05 01:49:10;;;;;;;1999.90;999.90;;;17.10;99.90;;;;;;5018907;28;20785;-81
2021/09/05 01:51:35;;;;;;;1999.90;999.90;;;17.10;99.90;;;;;;5018852;28;20178;-81
2021/09/05 01:54:02;;;;;;;1999.90;999.90;;;17.10;99.90;;;;;;5018539;28;20484;-81
2021/09/05 01:56:29;;;;;;;1999.90;999.90;;;17.10;99.90;;;;;;5018722;28;20266;-81
2021/09/05 01:58:56;;;;;;;1999.90;999.90;;;17.00;99.90;;;;;;5018457;28;20575;-81
2021/09/05 02:01:23;;;;;;;1999.90;999.90;;;17.10;99.90;;;;;;5018713;28;20401;-81
2021/09/05 02:03:49;;;;;;;1999.90;999.90;;;17.10;99.90;;;;;;5017338;28;20441;-81
2021/09/05 02:06:15;;;;;;;1999.90;999.90;;;17.10;99.90;;;;;;5017137;28;21036;-81
2021/09/05 02:08:40;;;;;;;1999.90;999.90;;;17.00;99.90;;;;;;5018517;28;20170;-81
2021/09/05 02:11:06;;;;;;;1999.90;999.90;;;17.00;99.90;;;;;;5018158;28;20261;-81
2021/09/05 02:13:32;;;;;;;1999.90;999.90;;;17.00;99.90;;;;;;5017289;28;20180;-81
2021/09/05 02:15:58;;;;;;;1999.90;999.90;;;17.00;99.90;;;;;;5017309;28;20202;-81
2021/09/05 02:18:24;;;;;;;1999.90;999.90;;;17.00;99.90;;;;;;5018223;28;20185;-81
2021/09/05 02:20:49;;;;;;;1999.90;999.90;;;16.90;99.90;;;;;;5019405;28;20409;-82
2021/09/05 02:23:15;;;;;;;1999.90;999.90;;;16.90;99.90;;;;;;5019981;28;20188;-82
2021/09/05 02:25:41;;;;;;;1999.90;999.90;;;16.90;99.90;;;;;;5019612;28;20161;-81
2021/09/05 02:28:07;;;;;;;1999.90;999.90;;;16.80;99.90;;;;;;5019581;28;20173;-82
2021/09/05 02:30:34;;;;;;;1999.90;999.90;;;16.80;99.90;;;;;;5019256;28;20539;-81
2021/09/05 02:33:03;;;;;;;1999.90;999.90;;;16.70;99.90;;;;;;5019042;28;20176;-82
2021/09/05 02:35:29;;;;;;;1999.90;999.90;;;16.80;99.90;;;;;;5018545;28;20405;-81
2021/09/05 02:37:55;;;;;;;1999.90;999.90;;;16.80;99.90;;;;;;5018107;28;20754;-81
2021/09/05 02:40:21;;;;;;;1999.90;999.90;;;16.70;99.90;;;;;;5016598;28;20445;-81
2021/09/05 02:42:47;;;;;;;1999.90;999.90;;;16.70;99.90;;;;;;5016643;28;20247;-81
2021/09/05 02:45:13;;;;;;;1999.90;999.90;;;16.70;99.90;;;;;;5017319;28;20897;-81
2021/09/05 02:47:39;;;;;;;1999.90;999.90;;;16.70;99.90;;;;;;5017901;28;20205;-81
2021/09/05 02:50:06;;;;;;;1999.90;999.90;;;16.60;99.90;;;;;;5017543;28;20408;-81
2021/09/05 02:52:32;;;;;;;1999.90;999.90;;;16.60;99.90;;;;;;5018052;28;20178;-81
2021/09/05 02:54:57;;;;;;;1999.90;999.90;;;16.60;99.90;;;;;;5016606;28;20411;-81
2021/09/05 02:57:23;;;;;;;1999.90;999.90;;;16.50;99.90;;;;;;5016569;28;20225;-81
2021/09/05 02:59:49;;;;;;;1999.90;999.90;;;16.50;99.90;;;;;;5018757;28;20269;-81
2021/09/05 03:02:14;;;;;;;1999.90;999.90;;;16.50;99.90;;;;;;5017551;28;20564;-81
2021/09/05 03:04:40;;;;;;;1999.90;999.90;;;16.50;99.90;;;;;;5018046;28;20166;-81
2021/09/05 03:07:06;;;;;;;1999.90;999.90;;;16.50;99.90;;;;;;5017529;28;20192;-81
2021/09/05 03:09:32;;;;;;;1999.90;999.90;;;16.50;99.90;;;;;;5018192;28;20537;-81
2021/09/05 03:11:57;;;;;;;1999.90;999.90;;;16.40;99.90;;;;;;5016013;28;20254;-81
2021/09/05 03:14:23;;;;;;;1999.90;999.90;;;16.40;99.90;;;;;;5018226;28;20178;-81
2021/09/05 03:16:49;;;;;;;1999.90;999.90;;;16.40;99.90;;;;;;5018001;28;20225;-81
2021/09/05 03:19:14;;;;;;;1999.90;999.90;;;16.40;99.90;;;;;;5016924;28;20250;-81
2021/09/05 03:21:49;;;;;;;1999.90;999.90;;;16.40;99.90;;;;;;5015781;28;20166;-81
2021/09/05 03:24:15;;;;;;;1999.90;999.90;;;16.30;99.90;;;;;;5017262;28;20256;-81
2021/09/05 03:26:41;;;;;;;1999.90;999.90;;;16.30;99.90;;;;;;5017347;28;20457;-81
2021/09/05 03:31:34;;;;;;;1999.90;999.90;;;16.30;99.90;;;;;;5022744;28;20232;-83
2021/09/05 03:34:00;;;;;;;1999.90;999.90;;;16.20;99.90;;;;;;5024467;28;20397;-83
2021/09/05 03:36:26;;;;;;;1999.90;999.90;;;16.20;99.90;;;;;;5023525;28;20188;-83
2021/09/05 03:38:52;;;;;;;1999.90;999.90;;;16.20;99.90;;;;;;5024625;28;20452;-80
2021/09/05 03:41:18;;;;;;;1999.90;999.90;;;16.20;99.90;;;;;;5026422;28;20420;-80
2021/09/05 03:43:43;;;;;;;1999.90;999.90;;;16.20;99.90;;;;;;5026369;28;20166;-80
2021/09/05 03:46:09;;;;;;;1999.90;999.90;;;16.20;99.90;;;;;;5024910;28;20200;-80
2021/09/05 03:48:35;;;;;;;1999.90;999.90;;;16.20;99.90;;;;;;5027316;28;20177;-80
2021/09/05 03:51:01;;;;;;;1999.90;999.90;;;16.10;99.90;;;;;;5026984;28;20161;-80
2021/09/05 03:53:26;;;;;;;1999.90;999.90;;;16.10;99.90;;;;;;5027000;28;20468;-80
2021/09/05 03:55:55;;;;;;;1999.90;999.90;;;16.10;99.90;;;;;;5026751;28;20451;-80
2021/09/05 03:58:24;;;;;;;1999.90;999.90;;;16.00;99.90;;;;;;5027573;28;20172;-80
2021/09/05 04:00:49;;;;;;;1999.90;999.90;;;16.00;99.90;;;;;;5025781;28;20920;-80
2021/09/05 04:03:15;;;;;;;1999.90;999.90;;;16.00;99.90;;;;;;5026884;28;20403;-80
2021/09/05 04:05:41;;;;;;;1999.90;999.90;;;15.90;99.90;;;;;;5026699;28;20244;-81
2021/09/05 04:10:33;;;;;;;1999.90;999.90;;;15.90;99.90;;;;;;5027400;28;20524;-80
2021/09/05 04:12:59;;;;;;;1999.90;999.90;;;15.90;99.90;;;;;;5027100;28;20414;-80
2021/09/05 04:15:26;;;;;;;1999.90;999.90;;;15.90;99.90;;;;;;5027998;28;20395;-80
2021/09/05 04:17:52;;;;;;;1999.90;999.90;;;15.90;99.90;;;;;;5027557;28;20176;-80
2021/09/05 04:20:18;;;;;;;1999.90;999.90;;;15.90;99.90;;;;;;5028217;28;20534;-80
2021/09/05 04:22:44;;;;;;;1999.90;999.90;;;15.90;99.90;;;;;;5028034;28;20409;-80
2021/09/05 04:25:10;;;;;;;1999.90;999.90;;;15.80;99.90;;;;;;5028829;28;20428;-80
2021/09/05 04:27:36;;;;;;;1999.90;999.90;;;15.80;99.90;;;;;;5027938;28;20424;-80
2021/09/05 04:30:03;;;;;;;1999.90;999.90;;;15.80;99.90;;;;;;5028006;28;20426;-80
2021/09/05 04:32:29;;;;;;;1999.90;999.90;;;15.80;99.90;;;;;;5030163;28;20406;-80
2021/09/05 04:34:55;;;;;;;1999.90;999.90;;;15.80;99.90;;;;;;5028370;28;20404;-80
2021/09/05 04:37:20;;;;;;;1999.90;999.90;;;15.70;99.90;;;;;;5026894;28;20185;-80
2021/09/05 04:39:52;;;;;;;1999.90;999.90;;;15.70;99.90;;;;;;5027957;28;20202;-80
2021/09/05 04:42:18;;;;;;;1999.90;999.90;;;15.70;99.90;;;;;;5028348;28;20165;-80
2021/09/05 04:44:46;;;;;;;1999.90;999.90;;;15.70;99.90;;;;;;5027621;28;20417;-80
2021/09/05 04:47:12;;;;;;;1999.90;999.90;;;15.70;99.90;;;;;;5028757;28;20429;-80
2021/09/05 04:49:38;;;;;;;1999.90;999.90;;;15.70;99.90;;;;;;5026619;28;20404;-82
2021/09/05 04:52:06;;;;;;;1999.90;999.90;;;15.70;99.90;;;;;;5026506;28;20412;-80
2021/09/05 04:54:33;;;;;;;1999.90;999.90;;;15.70;99.90;;;;;;5025526;28;20167;-80
2021/09/05 04:57:02;;;;;;;1999.90;999.90;;;15.70;99.90;;;;;;5026681;28;20433;-80
2021/09/05 04:59:28;;;;;;;1999.90;999.90;;;15.70;99.90;;;;;;5026464;28;20452;-80
2021/09/05 05:01:53;;;;;;;1999.90;999.90;;;15.70;99.90;;;;;;5026806;28;20427;-80
2021/09/05 05:04:19;;;;;;;1999.90;999.90;;;15.60;99.90;;;;;;5027576;28;20171;-80
2021/09/05 05:06:45;;;;;;;1999.90;999.90;;;15.60;99.90;;;;;;5025928;28;20225;-80
2021/09/05 05:09:15;;;;;;;1999.90;999.90;;;15.60;99.90;;;;;;5025992;28;20168;-82
2021/09/05 05:11:44;;;;;;;1999.90;999.90;;;15.60;99.90;;;;;;5024407;28;20178;-83
2021/09/05 05:14:11;;;;;;;1999.90;999.90;;;15.60;99.90;;;;;;5022682;28;20419;-82
2021/09/05 05:16:37;;;;;;;1999.90;999.90;;;15.60;99.90;;;;;;5021296;28;20892;-82
2021/09/05 05:19:03;;;;;;;1999.90;999.90;;;15.60;99.90;;;;;;5025523;28;20483;-82
2021/09/05 05:21:32;;;;;;;1999.90;999.90;;;15.60;99.90;;;;;;5026536;28;20988;-82
2021/09/05 05:23:58;;;;;;;1999.90;999.90;;;15.60;99.90;;;;;;5027985;28;20400;-82
2021/09/05 05:26:26;;;;;;;1999.90;999.90;;;15.60;99.90;;;;;;5027767;28;20509;-82
2021/09/05 05:28:52;;;;;;;1999.90;999.90;;;15.60;99.90;;;;;;5025874;28;20417;-82
2021/09/05 05:31:18;;;;;;;1999.90;999.90;;;15.60;99.90;;;;;;5024823;28;20426;-82
2021/09/05 05:33:44;;;;;;;1999.90;999.90;;;15.60;99.90;;;;;;5024572;28;20427;-82
2021/09/05 05:36:09;;;;;;;1999.90;999.90;;;15.60;99.90;;;;;;5024678;28;20494;-82
2021/09/05 05:38:37;;;;;;;1999.90;999.90;;;15.60;99.90;;;;;;5025348;28;20172;-82
2021/09/05 05:41:02;;;;;;;1999.90;999.90;;;15.60;99.90;;;;;;5026400;28;20254;-82
2021/09/05 05:43:28;;;;;;;1999.90;999.90;;;15.60;99.90;;;;;;5025320;28;20441;-82
2021/09/05 05:45:54;;;;;;;1999.90;999.90;;;15.60;99.90;;;;;;5026857;28;20189;-82
2021/09/05 05:48:19;;;;;;;1999.90;999.90;;;15.60;99.90;;;;;;5026845;28;20188;-82
2021/09/05 05:50:47;;;;;;;1999.90;999.90;;;15.70;99.90;;;;;;5028376;28;20174;-80
2021/09/05 05:53:14;;;;;;;1999.90;999.90;;;15.70;99.90;;;;;;5029264;28;20163;-80
2021/09/05 05:55:40;;;;;;;1999.90;999.90;;;15.70;99.90;;;;;;5028215;28;20436;-80
2021/09/05 05:58:06;;;;;;;1999.90;999.90;;;15.70;99.90;;;;;;5028743;28;20501;-80
2021/09/05 06:00:32;;;;;;;1999.90;999.90;;;15.70;99.90;;;;;;5027441;28;20448;-80
2021/09/05 06:02:57;;;;;;;1999.90;999.90;;;15.80;99.90;;;;;;5029322;28;20167;-80
2021/09/05 06:05:29;;;;;;;1999.90;999.90;;;15.80;99.90;;;;;;5030423;28;20170;-83
2021/09/05 06:07:55;;;;;;;1999.90;999.90;;;15.80;99.90;;;;;;5024889;28;20191;-83
2021/09/05 06:10:20;;;;;;;1999.90;999.90;;;15.80;99.90;;;;;;5026321;28;20486;-83
2021/09/05 06:12:46;;;;;;;1999.90;999.90;;;15.80;99.90;;;;;;5024204;28;20619;-82
2021/09/05 06:15:12;;;;;;;1999.90;999.90;;;15.80;99.90;;;;;;5026028;28;20220;-83
2021/09/05 06:17:40;;;;;;;1999.90;999.90;;;15.90;99.90;;;;;;5025854;28;20196;-83
2021/09/05 06:20:07;;;;;;;1999.90;999.90;;;15.90;99.90;;;;;;5025396;28;20217;-83
2021/09/05 06:22:33;;;;;;;1999.90;999.90;;;15.90;99.90;;;;;;5026770;28;20493;-80
2021/09/05 06:24:59;;;;;;;1999.90;999.90;;;15.90;99.90;;;;;;5029792;28;20411;-80
2021/09/05 06:27:24;;;;;;;1999.90;999.90;;;15.90;99.90;;;;;;5028718;28;20418;-80
2021/09/05 06:30:00;;;;;;;1999.90;999.90;;;15.90;99.90;;;;;;5027020;28;20202;-80
2021/09/05 06:32:27;;;;;;;1999.90;999.90;;;15.90;99.90;;;;;;5027789;28;20157;-80
2021/09/05 06:34:53;;;;;;;1999.90;999.90;;;16.00;99.90;;;;;;5025878;28;20411;-81
2021/09/05 06:37:18;;;;;;;1999.90;999.90;;;15.90;99.90;;;;;;5026915;28;20456;-80
2021/09/05 06:39:47;;;;;;;1999.90;999.90;;;15.80;99.90;;;;;;5023964;28;20214;-80
2021/09/05 06:42:12;;;;;;;1999.90;999.90;;;15.90;99.90;;;;;;5026861;28;20180;-80
2021/09/05 06:44:38;;;;;;;1999.90;999.90;;;16.00;99.90;;;;;;5025710;28;20415;-80
2021/09/05 06:47:08;;;;;;;1999.90;999.90;;;16.00;99.90;;;;;;5027695;28;20196;-80
2021/09/05 06:49:34;;;;;;;1999.90;999.90;;;16.00;99.90;;;;;;5028922;28;20422;-80
2021/09/05 06:51:59;;;;;;;1999.90;999.90;;;16.10;99.90;;;;;;5026016;28;20408;-80
2021/09/05 06:54:25;;;;;;;1999.90;999.90;;;16.10;99.90;;;;;;5028396;28;20180;-80
2021/09/05 06:56:51;;;;;;;1999.90;999.90;;;16.10;99.90;;;;;;5025025;28;20221;-80
2021/09/05 06:59:16;;;;;;;1999.90;999.90;;;16.10;99.90;;;;;;5023160;28;20244;-80
2021/09/05 07:01:45;;;;;;;1999.90;999.90;;;16.20;99.90;;;;;;5025127;28;20176;-80
2021/09/05 07:04:12;;;;;;;1999.90;999.90;;;16.30;99.90;;;;;;5030507;28;20166;-80
2021/09/05 07:06:38;;;;;;;1999.90;999.90;;;16.30;99.90;;;;;;5030568;28;20461;-80
2021/09/05 07:09:03;;;;;;;1999.90;999.90;;;16.30;99.90;;;;;;5030875;28;20418;-80
2021/09/05 07:11:32;;;;;;;1999.90;999.90;;;16.30;99.90;;;;;;5031607;28;20405;-80
2021/09/05 07:13:58;;;;;;;1999.90;999.90;;;16.30;99.90;;;;;;5030052;28;20157;-80
2021/09/05 07:16:23;;;;;;;1999.90;999.90;;;16.40;99.90;;;;;;5028006;28;20421;-80
2021/09/05 07:18:49;;;;;;;1999.90;999.90;;;16.40;99.90;;;;;;5026960;28;20262;-80
2021/09/05 07:21:14;;;;;;;1999.90;999.90;;;16.40;99.90;;;;;;5028928;28;20172;-80
2021/09/05 07:23:43;;;;;;;1999.90;999.90;;;16.50;99.90;;;;;;5028633;28;20192;-80
2021/09/05 07:26:09;;;;;;;1999.90;999.90;;;16.60;99.90;;;;;;5030294;28;20196;-80
2021/09/05 07:28:36;;;;;;;1999.90;999.90;;;16.60;99.90;;;;;;5030521;28;20420;-80
2021/09/05 07:31:06;;;;;;;1999.90;999.90;;;16.60;99.90;;;;;;5029488;28;20178;-80
2021/09/05 07:33:32;;;;;;;1999.90;999.90;;;16.70;99.90;;;;;;5029463;28;20421;-80
2021/09/05 07:35:58;;;;;;;1999.90;999.90;;;16.80;99.90;;;;;;5030121;28;20432;-80
2021/09/05 07:38:23;;;;;;;1999.90;999.90;;;16.80;99.90;;;;;;5028143;28;20174;-80
2021/09/05 07:40:52;;;;;;;1999.90;999.90;;;16.80;99.90;;;;;;5028069;28;20212;-80
2021/09/05 07:43:18;;;;;;;1999.90;999.90;;;16.90;99.90;;;;;;5025650;28;20173;-82
2021/09/05 07:45:44;;;;;;;1999.90;999.90;;;16.90;99.90;;;;;;5024463;28;20405;-80
2021/09/05 07:48:09;;;;;;;1999.90;999.90;;;17.00;99.90;;;;;;5025408;28;20166;-80
2021/09/05 07:50:35;;;;;;;1999.90;999.90;;;17.10;99.90;;;;;;5025721;28;20177;-82
2021/09/05 07:53:01;;;;;;;1999.90;999.90;;;17.10;99.90;;;;;;5025972;28;20157;-82
2021/09/05 07:55:26;;;;;;;1999.90;999.90;;;17.10;99.90;;;;;;5024479;28;20199;-83
2021/09/05 07:57:52;;;;;;;1999.90;999.90;;;17.20;99.90;;;;;;5026421;28;20170;-80
2021/09/05 08:00:18;;;;;;;1999.90;999.90;;;17.30;99.90;;;;;;5028258;28;20193;-80
2021/09/05 08:02:43;;;;;;;1999.90;999.90;;;17.40;99.90;;;;;;5028570;28;20222;-80
2021/09/05 08:05:10;;;;;;;1999.90;999.90;;;17.50;99.90;;;;;;5027342;28;20397;-80
2021/09/05 08:07:39;;;;;;;1999.90;999.90;;;17.50;99.90;;;;;;5027836;28;20246;-80
2021/09/05 08:10:05;;;;;;;1999.90;999.90;;;17.50;99.90;;;;;;5026583;28;20893;-80
2021/09/05 08:12:31;;;;;;;1999.90;999.90;;;17.60;99.90;;;;;;5026480;28;20410;-80
2021/09/05 08:14:56;;;;;;;1999.90;999.90;;;17.60;99.90;;;;;;5025089;28;20428;-80
2021/09/05 08:17:22;;;;;;;1999.90;999.90;;;17.70;99.90;;;;;;5026767;28;20608;-80
2021/09/05 08:19:50;;;;;;;1999.90;999.90;;;17.80;99.90;;;;;;5026944;28;20244;-80
2021/09/05 08:22:19;;;;;;;1999.90;999.90;;;17.90;99.90;;;;;;5026841;28;20162;-80
2021/09/05 08:24:45;;;;;;;1999.90;999.90;;;18.00;99.90;;;;;;5027547;28;20405;-83
2021/09/05 08:27:10;;;;;;;1999.90;999.90;;;18.10;99.90;;;;;;5026983;28;20424;-80
2021/09/05 08:29:36;;;;;;;1999.90;999.90;;;18.20;99.90;;;;;;5027962;28;20178;-80
2021/09/05 08:32:02;;;;;;;1999.90;999.90;;;18.30;99.90;;;;;;5028662;28;20170;-80
2021/09/05 08:34:29;;;;;;;1999.90;999.90;;;18.30;99.90;;;;;;5028606;28;20166;-80
2021/09/05 08:36:57;;;;;;;1999.90;999.90;;;18.40;99.90;;;;;;5028080;28;20499;-80
2021/09/05 08:39:26;;;;;;;1999.90;999.90;;;18.40;99.90;;;;;;5029387;28;20457;-80
2021/09/05 08:41:55;;;;;;;1999.90;999.90;;;18.40;99.90;;;;;;5030513;28;20405;-81
2021/09/05 08:44:21;;;;;;;1999.90;999.90;;;18.50;99.90;;;;;;5030171;28;20401;-81
2021/09/05 08:46:47;;;;;;;1999.90;999.90;;;18.60;99.90;;;;;;5029049;28;20429;-81
2021/09/05 08:49:17;;;;;;;1999.90;999.90;;;18.70;99.90;;;;;;5029354;28;20409;-81
2021/09/05 08:51:43;;;;;;;1999.90;999.90;;;18.80;99.90;;;;;;5003019;28;20178;-80
2021/09/05 08:54:09;;;;;;;1999.90;999.90;;;18.80;99.90;;;;;;5017578;28;20396;-80
2021/09/05 08:56:37;;;;;;;1999.90;999.90;;;18.90;99.90;;;;;;5017660;28;20912;-80
2021/09/05 08:59:03;;;;;;;1999.90;999.90;;;19.10;99.90;;;;;;5017581;28;20522;-80
2021/09/05 09:01:29;;;;;;;1999.90;999.90;;;19.20;99.90;;;;;;5016071;28;20444;-81
2021/09/05 09:04:19;;;;;;;1999.90;999.90;;;19.30;99.90;;;;;;5015509;28;20162;-89
2021/09/05 09:06:52;;;;;;;1999.90;999.90;;;19.40;99.90;;;;;;5012328;28;20940;-89
2021/09/05 09:09:53;;;;;;;1999.90;999.90;;;19.40;99.90;;;;;;5012285;28;20416;-89
2021/09/05 09:12:51;;;;;;;1999.90;999.90;;;19.50;99.90;;;;;;4979859;28;20421;-89
2021/09/05 09:18:09;;;;;;;1999.90;999.90;;;19.60;99.90;;;;;;5058555;22;20580;-89
2021/09/05 09:20:42;;;;;;;1999.90;999.90;;;19.70;99.90;;;;;;5013641;28;20507;-89
2021/09/05 09:23:28;;;;;;;1999.90;999.90;;;19.80;99.90;;;;;;5013451;28;20386;-89
2021/09/05 09:26:07;;;;;;;1999.90;999.90;;;19.90;99.90;;;;;;5012788;28;20982;-89
2021/09/05 09:28:46;;;;;;;1999.90;999.90;;;19.90;99.90;;;;;;5013506;28;20440;-89
2021/09/05 09:31:25;;;;;;;1999.90;999.90;;;20.00;99.90;;;;;;5013196;28;20722;-89
2021/09/05 09:49:16;;;;;;;1999.90;999.90;;;20.70;99.90;;;;;;5033652;28;20471;-87
2021/09/05 09:51:42;;;;;;;1999.90;999.90;;;20.80;99.90;;;;;;5035927;28;20392;-87
2021/09/05 09:54:08;;;;;;;1999.90;999.90;;;20.90;99.90;;;;;;5036108;28;20390;-87
2021/09/05 09:56:34;;;;;;;1999.90;999.90;;;21.00;99.90;;;;;;5035638;28;20424;-87
2021/09/05 09:59:07;;;;;;;1999.90;999.90;;;21.20;99.90;;;;;;5034565;28;20447;-88
2021/09/05 10:01:34;;;;;;;1999.90;999.90;;;21.30;99.90;;;;;;5033828;28;20410;-87
2021/09/05 10:04:02;;;;;;;1999.90;999.90;;;21.40;99.90;;;;;;5034801;28;20468;-88
2021/09/05 10:06:30;;;;;;;1999.90;999.90;;;21.60;99.90;;;;;;5039885;28;20439;-87
2021/09/05 10:09:04;;;;;;;1999.90;999.90;;;21.70;99.90;;;;;;5038952;28;20418;-88
2021/09/05 10:11:31;;;;;;;1999.90;999.90;;;21.90;99.90;;;;;;5038593;28;20396;-87
2021/09/05 10:14:00;;;;;;;1999.90;999.90;;;21.90;99.90;;;;;;5038732;28;20418;-88
2021/09/05 10:16:26;;;;;;;1999.90;999.90;;;21.90;99.90;;;;;;5037278;28;20426;-87
2021/09/05 10:18:56;;;;;;;1999.90;999.90;;;21.90;99.90;;;;;;5037794;28;20463;-87
2021/09/05 10:21:23;;;;;;;1999.90;999.90;;;22.10;99.90;;;;;;5037336;28;20416;-88
2021/09/05 10:23:53;;;;;;;1999.90;999.90;;;22.20;99.90;;;;;;5038527;28;20482;-87
2021/09/05 10:26:21;;;;;;;1999.90;999.90;;;22.30;99.90;;;;;;5038395;28;20919;-87
2021/09/05 10:28:55;;;;;;;1999.90;999.90;;;22.60;99.90;;;;;;5038097;28;20767;-88
2021/09/05 10:31:31;;;;;;;1999.90;999.90;;;22.60;99.90;;;;;;5037033;28;20416;-88
2021/09/05 10:33:58;;;;;;;1999.90;999.90;;;22.60;99.90;;;;;;5037418;28;20400;-88
2021/09/05 10:36:25;;;;;;;1999.90;999.90;;;22.70;99.90;;;;;;5038502;28;20446;-88
2021/09/05 10:39:04;;;;;;;1999.90;999.90;;;22.90;99.90;;;;;;5037941;28;20435;-88
2021/09/05 10:41:30;;;;;;;1999.90;999.90;;;23.20;99.90;;;;;;5039498;28;20388;-88
2021/09/05 10:44:05;;;;;;;1999.90;999.90;;;23.40;99.90;;;;;;5037483;28;20985;-88
2021/09/05 10:46:52;;;;;;;1999.90;999.90;;;23.80;99.90;;;;;;5037970;28;20196;-88
2021/09/05 10:49:37;;;;;;;1999.90;999.90;;;24.00;99.90;;;;;;5039232;28;20376;-88
2021/09/05 10:52:03;;;;;;;1999.90;999.90;;;24.30;99.90;;;;;;5037527;28;20985;-88
2021/09/05 10:54:29;;;;;;;1999.90;999.90;;;24.50;99.90;;;;;;5037623;28;20919;-88
2021/09/05 10:56:59;;;;;;;1999.90;999.90;;;24.30;97.20;;;;;;5037315;28;20470;-88
2021/09/05 10:59:31;;;;;;;1999.90;999.90;;;24.40;96.60;;;;;;5038777;28;20450;-88
2021/09/05 11:01:58;;;;;;;1999.90;999.90;;;24.60;96.00;;;;;;5037716;28;20455;-88
2021/09/05 11:04:26;;;;;;;1999.90;999.90;;;24.60;93.30;;;;;;5039018;28;20406;-88
2021/09/05 11:06:53;;;;;;;1999.90;999.90;;;24.40;93.20;;;;;;5036592;28;20490;-88
2021/09/05 11:09:19;;;;;;;1999.90;999.90;;;24.20;93.10;;;;;;5038036;28;20405;-88
2021/09/05 11:12:00;;;;;;;1999.90;999.90;;;24.30;97.10;;;;;;5037927;28;20404;-88
2021/09/05 11:14:34;;;;;;;1999.90;999.90;;;24.70;93.40;;;;;;5038787;28;20431;-88
2021/09/05 11:17:19;;;;;;;1999.90;999.90;;;25.10;92.10;;;;;;5037365;28;20467;-88
2021/09/05 11:20:03;;;;;;;1999.90;999.90;;;24.90;91.00;;;;;;5038316;28;20444;-88
2021/09/05 11:22:32;;;;;;;1999.90;999.90;;;25.00;92.40;;;;;;5042468;28;20389;-88
2021/09/05 11:25:07;;;;;;;1999.90;999.90;;;25.30;84.10;;;;;;5038853;28;20435;-88
2021/09/05 11:27:33;;;;;;;1999.90;999.90;;;25.70;85.20;;;;;;5038441;28;20421;-88
2021/09/05 11:30:01;;;;;;;1999.90;999.90;;;26.00;74.50;;;;;;5039824;28;20458;-88
2021/09/05 11:32:27;;;;;;;1999.90;999.90;;;26.10;91.00;;;;;;5041795;28;20418;-88
2021/09/05 11:34:56;;;;;;;1999.90;999.90;;;25.80;78.60;;;;;;5042724;28;20414;-88
2021/09/05 11:37:31;;;;;;;1999.90;999.90;;;25.60;79.90;;;;;;5043615;28;20207;-88
2021/09/05 11:40:07;;;;;;;1999.90;999.90;;;25.60;76.70;;;;;;5042103;28;20465;-89
2021/09/05 11:42:33;;;;;;;1999.90;999.90;;;25.40;64.40;;;;;;5043298;28;20455;-88
2021/09/05 11:45:07;;;;;;;1999.90;999.90;;;25.40;70.90;;;;;;5042397;28;20411;-88
2021/09/05 11:47:33;;;;;;;1999.90;999.90;;;25.80;68.30;;;;;;5040481;28;20516;-88
2021/09/05 11:50:02;;;;;;;1999.90;999.90;;;25.60;62.70;;;;;;5039818;28;20443;-88
2021/09/05 11:52:34;;;;;;;1999.90;999.90;;;25.60;84.90;;;;;;5037475;28;20906;-88
2021/09/05 11:55:01;;;;;;;1999.90;999.90;;;25.80;77.30;;;;;;5035717;28;20404;-89
2021/09/05 11:57:27;;;;;;;1999.90;999.90;;;26.10;59.10;;;;;;5036471;28;20467;-89
2021/09/05 11:59:58;;;;;;;1999.90;999.90;;;26.50;50.10;;;;;;5037931;28;20419;-88
2021/09/05 12:02:35;;;;;;;1999.90;999.90;;;26.90;50.30;;;;;;5037742;28;20422;-88
2021/09/05 12:05:02;;;;;;;1999.90;999.90;;;27.10;30.90;;;;;;5035127;28;20478;-88
2021/09/05 12:07:30;;;;;;;1999.90;999.90;;;27.30;19.40;;;;;;5038659;28;20485;-88
2021/09/05 12:10:29;;;;;;;1999.90;999.90;;;27.00;18.90;;;;;;5040829;28;20448;-88
2021/09/05 12:13:13;;;;;;;1999.90;999.90;;;26.70;36.40;;;;;;5007915;28;20443;-89
2021/09/05 12:15:44;;;;;;;1999.90;999.90;;;26.50;34.50;;;;;;5041379;28;20395;-88
2021/09/05 12:18:21;;;;;;;1999.90;999.90;;;26.70;45.30;;;;;;5037742;28;20412;-89
2021/09/05 12:20:55;;;;;;;1999.90;999.90;;;26.60;23.40;;;;;;5036781;28;20412;-89
2021/09/05 12:23:25;;;;;;;1999.90;999.90;;;27.00;26.10;;;;;;5036993;28;20387;-89
2021/09/05 12:25:52;;;;;;;1999.90;999.90;;;26.90;28.10;;;;;;5036381;28;20428;-88